Terminal Aerodrome Forecast
Issued by NWS Wichita, KS

Home | Current Version | Previous Version | Graphics & Text | Print | Product List | Glossary On
Versions: 1 2 3 4 5 6 7 8 9 10 11 12 13 14 15 16 17
000
FTUS43 KICT 220800 AAA
TAFICT
TAF AMD
KICT 220854Z 2209/2306 18007KT 4SM BR BKN250
      TEMPO 2211/2214 SCT007
     FM221600 20012KT P6SM SCT250
     FM230200 VRB05KT P6SM BKN250=

USA.gov is the U.S. government's official web portal to all federal, state and local government web resources and services.